createdAt,value
2022-07-29T00:00:32.153Z,19.55
2022-07-29T00:01:36.819Z,22.60
2022-07-29T00:02:39.033Z,17.70
2022-07-29T00:03:43.849Z,21.73
2022-07-29T00:04:48.559Z,23.20
2022-07-29T00:05:50.711Z,24.20
2022-07-29T00:06:55.428Z,20.27
2022-07-29T00:07:57.676Z,12.55
2022-07-29T00:09:02.337Z,21.55
2022-07-29T00:10:05.778Z,23.77
2022-07-29T00:11:10.494Z,14.35
2022-07-29T00:12:12.637Z,24.77
2022-07-29T00:13:18.655Z,12.63
2022-07-29T00:14:39.567Z,15.63
2022-07-29T00:15:41.689Z,15.57
2022-07-29T00:16:46.452Z,16.30
2022-07-29T00:17:48.656Z,17.50
2022-07-29T00:18:53.356Z,16.98
2022-07-29T00:19:55.445Z,11.98
2022-07-29T00:21:00.257Z,13.20
2022-07-29T00:22:02.397Z,16.52
2022-07-29T00:23:07.065Z,15.45
2022-07-29T00:24:10.649Z,12.93
2022-07-29T00:25:16.643Z,18.85
2022-07-29T00:26:18.714Z,16.05
2022-07-29T00:27:23.398Z,24.00
2022-07-29T00:28:26.018Z,19.83
2022-07-29T00:29:33.985Z,18.65
2022-07-29T00:30:39.552Z,23.13
2022-07-29T00:31:44.315Z,21.52
2022-07-29T00:32:46.515Z,23.30
2022-07-29T00:33:51.207Z,20.58
2022-07-29T00:35:08.385Z,25.42
2022-07-29T00:36:10.428Z,17.98
2022-07-29T00:37:12.524Z,18.17
2022-07-29T00:38:18.707Z,21.50
2022-07-29T00:39:20.748Z,14.82
2022-07-29T00:40:26.041Z,21.92
2022-07-29T00:41:28.101Z,20.73
2022-07-29T00:42:32.788Z,18.90
2022-07-29T00:43:37.413Z,16.95
2022-07-29T00:44:39.994Z,17.38
2022-07-29T00:45:47.687Z,15.60
2022-07-29T00:46:49.883Z,15.50
2022-07-29T00:47:54.660Z,18.70
2022-07-29T00:48:56.775Z,18.23
2022-07-29T00:50:01.512Z,13.13
2022-07-29T00:51:08.746Z,13.82
2022-07-29T00:52:16.982Z,16.42
2022-07-29T00:53:23.856Z,22.02
2022-07-29T00:54:26.403Z,14.90
2022-07-29T00:55:31.398Z,15.63
2022-07-29T00:56:34.075Z,12.45
2022-07-29T00:57:39.540Z,14.77
2022-07-29T00:58:41.767Z,14.73
2022-07-29T00:59:46.455Z,13.48
2022-07-29T01:00:51.269Z,17.85
2022-07-29T01:01:56.069Z,13.93
2022-07-29T01:03:01.632Z,13.25
2022-07-29T01:04:04.211Z,21.20
2022-07-29T01:05:10.298Z,19.38
2022-07-29T01:06:12.632Z,18.70
2022-07-29T01:07:17.497Z,11.65
2022-07-29T01:08:21.492Z,12.18
2022-07-29T01:09:45.324Z,15.07
2022-07-29T01:10:52.954Z,21.08
2022-07-29T01:11:55.506Z,18.60
2022-07-29T01:13:02.992Z,17.42
2022-07-29T01:14:11.357Z,12.13
2022-07-29T01:15:16.449Z,17.60
2022-07-29T01:16:29.143Z,9.38
2022-07-29T01:17:38.005Z,17.60
2022-07-29T01:18:48.842Z,10.93
2022-07-29T01:19:57.813Z,19.58
2022-07-29T01:21:31.687Z,18.20
2022-07-29T01:22:47.999Z,16.75
2022-07-29T01:24:11.447Z,11.18
2022-07-29T01:25:33.743Z,10.45
2022-07-29T01:27:00.310Z,24.23
2022-07-29T01:28:16.280Z,15.80
2022-07-29T01:29:36.236Z,10.82
2022-07-29T01:30:43.211Z,21.27
2022-07-29T01:32:00.590Z,15.23
2022-07-29T01:33:08.829Z,12.32
2022-07-29T01:34:19.177Z,14.38
2022-07-29T01:35:25.047Z,14.02
2022-07-29T01:36:36.233Z,24.33
2022-07-29T01:37:44.381Z,16.75
2022-07-29T01:38:57.861Z,10.68
2022-07-29T01:40:03.244Z,9.38
2022-07-29T01:41:12.949Z,15.02
2022-07-29T01:42:30.318Z,21.55
2022-07-29T01:43:41.261Z,11.70
2022-07-29T01:44:55.362Z,11.77
2022-07-29T01:46:02.530Z,15.43
2022-07-29T01:47:15.375Z,22.02
2022-07-29T01:48:22.795Z,17.50
2022-07-29T01:49:31.793Z,12.82
2022-07-29T01:50:39.965Z,14.38
2022-07-29T01:51:47.430Z,20.48
2022-07-29T01:52:59.815Z,19.42
2022-07-29T01:54:07.979Z,13.93
2022-07-29T01:55:17.377Z,10.55
2022-07-29T01:56:21.401Z,18.30
2022-07-29T01:57:31.956Z,17.63
2022-07-29T01:58:36.283Z,14.00
2022-07-29T01:59:42.399Z,15.02
2022-07-29T02:00:49.527Z,11.13
2022-07-29T02:01:57.807Z,7.05
2022-07-29T02:03:02.864Z,12.00
2022-07-29T02:04:10.948Z,10.25
2022-07-29T02:05:16.259Z,10.55
2022-07-29T02:06:24.953Z,7.93
2022-07-29T02:07:30.492Z,13.00
2022-07-29T02:08:37.420Z,11.18
2022-07-29T02:09:42.017Z,12.88
2022-07-29T02:10:48.744Z,16.05
2022-07-29T02:11:54.588Z,16.45
2022-07-29T02:13:00.924Z,8.70
2022-07-29T02:14:04.656Z,16.38
2022-07-29T02:15:11.193Z,7.32
2022-07-29T02:16:17.767Z,11.35
2022-07-29T02:17:27.792Z,11.30
2022-07-29T02:18:31.899Z,11.63
2022-07-29T02:19:37.936Z,22.42
2022-07-29T02:20:46.281Z,12.20
2022-07-29T02:21:49.404Z,15.68
2022-07-29T02:22:55.723Z,8.25
2022-07-29T02:24:01.997Z,13.10
2022-07-29T02:25:08.301Z,14.85
2022-07-29T02:26:18.303Z,10.15
2022-07-29T02:27:24.702Z,8.10
2022-07-29T02:28:29.665Z,16.73
2022-07-29T02:29:36.325Z,15.85
2022-07-29T02:30:41.921Z,13.20
2022-07-29T02:31:51.820Z,17.50
2022-07-29T02:32:58.544Z,14.77
2022-07-29T02:34:03.002Z,19.77
2022-07-29T02:35:09.976Z,21.15
2022-07-29T02:36:15.332Z,12.27
2022-07-29T02:37:19.116Z,17.00
2022-07-29T02:38:37.408Z,17.73
2022-07-29T02:39:44.714Z,17.08
2022-07-29T02:40:48.060Z,22.55
2022-07-29T02:41:55.442Z,22.23
2022-07-29T02:42:57.488Z,14.07
2022-07-29T02:44:07.992Z,14.05
2022-07-29T02:45:11.773Z,16.30
2022-07-29T02:46:29.218Z,19.52
2022-07-29T02:47:41.399Z,23.88
2022-07-29T02:48:50.500Z,21.17
2022-07-29T02:49:59.023Z,19.27
2022-07-29T02:51:08.398Z,23.98
2022-07-29T02:52:20.062Z,25.02
2022-07-29T02:54:35.909Z,16.27
2022-07-29T02:55:41.455Z,17.98
2022-07-29T02:56:48.186Z,13.70
2022-07-29T02:58:00.594Z,22.42
2022-07-29T02:59:07.370Z,20.10
2022-07-29T03:00:14.384Z,21.90
2022-07-29T03:01:22.109Z,20.85
2022-07-29T03:02:29.439Z,23.23
2022-07-29T03:03:39.243Z,17.50
2022-07-29T03:04:46.692Z,17.52
2022-07-29T03:05:48.923Z,21.98
2022-07-29T03:06:56.599Z,19.02
2022-07-29T03:08:02.130Z,23.58
2022-07-29T03:09:12.498Z,19.33
2022-07-29T03:10:17.805Z,28.75
2022-07-29T03:11:20.109Z,14.18
2022-07-29T03:12:45.554Z,19.10
2022-07-29T03:13:48.004Z,21.35
2022-07-29T03:14:53.101Z,29.75
2022-07-29T03:15:55.801Z,24.35
2022-07-29T03:17:03.793Z,33.53
2022-07-29T03:18:07.067Z,40.00
2022-07-29T03:19:14.870Z,27.38
2022-07-29T03:20:17.265Z,32.28
2022-07-29T03:21:21.939Z,33.35
2022-07-29T03:22:25.178Z,32.58
2022-07-29T03:23:35.249Z,23.23
2022-07-29T03:25:43.749Z,21.73
2022-07-29T03:26:45.902Z,33.92
2022-07-29T03:27:51.625Z,30.50
2022-07-29T03:28:53.697Z,28.45
2022-07-29T03:29:58.974Z,29.38
2022-07-29T03:31:01.092Z,34.40
2022-07-29T03:32:09.088Z,24.40
2022-07-29T03:33:13.698Z,30.85
2022-07-29T03:34:21.213Z,31.75
2022-07-29T03:35:25.844Z,34.95
2022-07-29T03:36:30.505Z,46.15
2022-07-29T03:37:34.439Z,27.67
2022-07-29T03:38:40.690Z,33.00
2022-07-29T03:39:44.161Z,45.33
2022-07-29T03:40:53.477Z,37.38
2022-07-29T03:41:59.004Z,29.27
2022-07-29T03:43:06.160Z,24.40
2022-07-29T03:44:09.133Z,21.13
2022-07-29T03:45:19.634Z,13.32
2022-07-29T03:46:23.786Z,21.67
2022-07-29T03:47:49.879Z,22.48
2022-07-29T03:48:58.698Z,11.93
2022-07-29T03:50:10.850Z,13.63
2022-07-29T03:51:13.500Z,19.67
2022-07-29T03:52:18.572Z,18.08
2022-07-29T03:53:20.677Z,14.02
2022-07-29T03:54:25.933Z,15.07
2022-07-29T03:55:30.842Z,17.85
2022-07-29T03:56:38.765Z,12.32
2022-07-29T03:57:41.622Z,10.10
2022-07-29T03:58:47.558Z,8.25
2022-07-29T03:59:50.301Z,12.43
2022-07-29T04:00:54.997Z,13.18
2022-07-29T04:01:58.277Z,10.68
2022-07-29T04:03:04.006Z,8.52
2022-07-29T04:04:06.606Z,10.05
2022-07-29T04:05:18.888Z,11.23
2022-07-29T04:06:20.909Z,12.20
2022-07-29T04:07:25.511Z,11.63
2022-07-29T04:08:27.526Z,8.93
2022-07-29T04:09:32.856Z,10.43
2022-07-29T04:10:35.719Z,11.77
2022-07-29T04:12:00.698Z,11.82
2022-07-29T04:13:06.788Z,10.25
2022-07-29T04:14:08.986Z,12.57
2022-07-29T04:15:14.751Z,13.68
2022-07-29T04:16:17.029Z,10.63
2022-07-29T04:17:21.817Z,12.50
2022-07-29T04:18:24.090Z,22.20
2022-07-29T04:19:29.232Z,12.75
2022-07-29T04:20:33.861Z,13.07
2022-07-29T04:21:41.340Z,21.98
2022-07-29T04:22:44.345Z,18.42
2022-07-29T04:23:52.913Z,15.52
2022-07-29T04:24:59.105Z,17.88
2022-07-29T04:26:10.688Z,9.70
2022-07-29T04:27:12.992Z,9.23
2022-07-29T04:28:17.579Z,10.02
2022-07-29T04:29:19.724Z,9.93
2022-07-29T04:30:24.516Z,10.35
2022-07-29T04:31:26.633Z,15.98
2022-07-29T04:32:31.337Z,13.00
2022-07-29T04:33:33.381Z,12.77
2022-07-29T04:34:39.258Z,11.52
2022-07-29T04:35:47.043Z,10.98
2022-07-29T04:36:55.564Z,15.88
2022-07-29T04:37:57.919Z,11.02
2022-07-29T04:39:03.002Z,10.63
2022-07-29T04:40:07.687Z,13.40
2022-07-29T04:41:12.582Z,15.70
2022-07-29T04:42:18.594Z,22.02
2022-07-29T04:43:36.843Z,25.70
2022-07-29T04:44:39.747Z,13.10
2022-07-29T04:45:47.603Z,17.65
2022-07-29T04:46:49.944Z,17.15
2022-07-29T04:47:55.163Z,15.30
2022-07-29T04:48:57.257Z,20.70
2022-07-29T04:50:02.285Z,15.70
2022-07-29T04:51:07.072Z,12.77
2022-07-29T04:52:11.699Z,13.93
2022-07-29T04:53:13.712Z,22.30
2022-07-29T04:54:18.705Z,22.30
2022-07-29T04:55:21.197Z,19.90
2022-07-29T04:56:26.097Z,13.30
2022-07-29T04:57:28.152Z,15.32
2022-07-29T04:58:33.086Z,13.20
2022-07-29T04:59:35.231Z,15.32
2022-07-29T05:00:40.090Z,17.80
2022-07-29T05:01:42.137Z,14.00
2022-07-29T05:02:47.749Z,14.93
2022-07-29T05:03:49.922Z,16.90
2022-07-29T05:04:54.543Z,19.58
2022-07-29T05:05:59.384Z,15.77
2022-07-29T05:07:04.069Z,14.30
2022-07-29T05:08:08.763Z,12.15
2022-07-29T05:09:10.880Z,16.73
2022-07-29T05:10:15.534Z,15.77
2022-07-29T05:11:21.335Z,13.43
2022-07-29T05:12:27.293Z,18.90
2022-07-29T05:13:29.412Z,15.68
2022-07-29T05:14:50.267Z,13.32
2022-07-29T05:15:52.521Z,13.07
2022-07-29T05:16:58.182Z,10.63
2022-07-29T05:18:00.701Z,12.20
2022-07-29T05:19:07.737Z,13.10
2022-07-29T05:20:15.620Z,16.25
2022-07-29T05:21:17.742Z,17.65
2022-07-29T05:22:25.164Z,17.60
2022-07-29T05:23:27.644Z,18.80
2022-07-29T05:24:32.270Z,19.55
2022-07-29T05:25:40.830Z,12.02
2022-07-29T05:27:51.023Z,18.45
2022-07-29T05:28:53.538Z,10.38
2022-07-29T05:29:58.201Z,20.85
2022-07-29T05:31:00.302Z,12.27
2022-07-29T05:32:05.041Z,10.63
2022-07-29T05:33:07.137Z,12.48
2022-07-29T05:34:12.649Z,10.77
2022-07-29T05:35:18.256Z,8.63
2022-07-29T05:36:20.666Z,11.93
2022-07-29T05:37:27.907Z,16.48
2022-07-29T05:38:30.338Z,11.68
2022-07-29T05:39:47.409Z,19.58
2022-07-29T05:40:52.864Z,22.05
2022-07-29T05:41:57.486Z,17.05
2022-07-29T05:43:02.191Z,26.42
2022-07-29T05:44:04.253Z,25.75
2022-07-29T05:45:09.909Z,22.92
2022-07-29T05:46:12.154Z,29.75
2022-07-29T05:47:17.104Z,23.10
2022-07-29T05:48:19.162Z,26.05
2022-07-29T05:49:23.819Z,21.58
2022-07-29T05:50:29.570Z,33.97
2022-07-29T05:51:34.425Z,29.33
2022-07-29T05:52:41.772Z,34.05
2022-07-29T05:53:43.888Z,37.58
2022-07-29T05:54:48.758Z,27.70
2022-07-29T05:55:51.847Z,34.92
2022-07-29T05:56:56.829Z,25.58
2022-07-29T05:57:58.903Z,26.25
2022-07-29T05:59:04.263Z,18.98
2022-07-29T06:00:20.170Z,25.63
2022-07-29T06:01:24.904Z,21.27
2022-07-29T06:02:27.072Z,18.75
2022-07-29T06:03:32.129Z,16.23
2022-07-29T06:04:34.920Z,21.25
2022-07-29T06:05:39.691Z,22.80
2022-07-29T06:06:41.777Z,22.77
2022-07-29T06:07:50.672Z,16.52
2022-07-29T06:08:56.460Z,15.45
2022-07-29T06:10:01.115Z,19.90
2022-07-29T06:11:03.838Z,25.35
2022-07-29T06:12:08.899Z,15.80
2022-07-29T06:13:11.140Z,19.40
2022-07-29T06:14:16.632Z,14.43
2022-07-29T06:15:19.521Z,16.13
2022-07-29T06:16:30.210Z,19.75
2022-07-29T06:17:35.814Z,17.83
2022-07-29T06:18:37.869Z,25.08
2022-07-29T06:19:42.484Z,19.08
2022-07-29T06:20:44.649Z,17.23
2022-07-29T06:21:50.368Z,26.40
2022-07-29T06:22:57.585Z,24.77
2022-07-29T06:23:59.650Z,26.98
2022-07-29T06:25:06.206Z,30.83
2022-07-29T06:26:08.443Z,23.38
2022-07-29T06:27:13.164Z,20.27
2022-07-29T06:28:15.534Z,17.42
2022-07-29T06:29:20.217Z,16.20
2022-07-29T06:30:22.285Z,15.07
2022-07-29T06:31:27.435Z,10.77
2022-07-29T06:32:29.563Z,17.35
2022-07-29T06:33:34.574Z,13.13
2022-07-29T06:34:36.889Z,10.32
2022-07-29T06:35:46.585Z,9.38
2022-07-29T06:36:55.500Z,9.88
2022-07-29T06:38:03.706Z,9.98
2022-07-29T06:39:12.256Z,17.52
2022-07-29T06:40:29.570Z,12.90
2022-07-29T06:41:34.335Z,6.88
2022-07-29T06:42:36.597Z,7.90
2022-07-29T06:43:52.627Z,8.25
2022-07-29T06:44:58.188Z,10.63
2022-07-29T06:46:04.624Z,10.75
2022-07-29T06:47:09.419Z,11.57
2022-07-29T06:48:11.548Z,11.73
2022-07-29T06:49:16.650Z,11.80
2022-07-29T06:50:18.917Z,10.30
2022-07-29T06:51:24.307Z,11.50
2022-07-29T06:52:26.813Z,16.50
2022-07-29T06:53:34.842Z,12.63
2022-07-29T06:54:36.959Z,10.68
2022-07-29T06:55:41.728Z,16.45
2022-07-29T06:56:46.573Z,11.20
2022-07-29T06:57:48.741Z,14.50
2022-07-29T06:58:56.157Z,7.22
2022-07-29T06:59:58.349Z,12.43
2022-07-29T07:01:06.165Z,8.02
2022-07-29T07:02:08.925Z,9.40
2022-07-29T07:03:14.039Z,5.93
2022-07-29T07:04:19.105Z,16.73
2022-07-29T07:05:21.657Z,13.48
2022-07-29T07:06:29.428Z,13.60
2022-07-29T07:07:32.064Z,18.00
2022-07-29T07:08:39.387Z,14.35
2022-07-29T07:09:44.264Z,15.85
2022-07-29T07:10:48.036Z,12.50
2022-07-29T07:11:53.146Z,12.48
2022-07-29T07:12:55.673Z,17.63
2022-07-29T07:14:03.368Z,14.38
2022-07-29T07:15:07.634Z,17.30
2022-07-29T07:16:12.440Z,14.65
2022-07-29T07:17:14.641Z,12.05
2022-07-29T07:18:20.502Z,10.07
2022-07-29T07:19:22.635Z,10.32
2022-07-29T07:20:27.566Z,13.55
2022-07-29T07:21:32.849Z,9.57
2022-07-29T07:22:38.749Z,12.70
2022-07-29T07:23:46.361Z,8.15
2022-07-29T07:24:48.599Z,15.65
2022-07-29T07:25:53.359Z,5.75
2022-07-29T07:26:55.553Z,8.60
2022-07-29T07:28:00.290Z,12.80
2022-07-29T07:29:02.493Z,9.57
2022-07-29T07:30:09.497Z,10.30
2022-07-29T07:31:12.001Z,22.95
2022-07-29T07:32:17.591Z,10.15
2022-07-29T07:33:22.399Z,7.43
2022-07-29T07:34:29.324Z,9.73
2022-07-29T07:35:34.475Z,13.52
2022-07-29T07:36:36.686Z,16.23
2022-07-29T07:37:42.407Z,10.98
2022-07-29T07:38:49.799Z,9.25
2022-07-29T07:39:52.560Z,12.35
2022-07-29T07:40:57.330Z,8.85
2022-07-29T07:41:59.959Z,11.77
2022-07-29T07:43:04.717Z,7.35
2022-07-29T07:44:07.370Z,8.35
2022-07-29T07:45:16.120Z,7.55
2022-07-29T07:46:21.422Z,7.07
2022-07-29T07:47:24.669Z,10.60
2022-07-29T07:48:32.885Z,5.28
2022-07-29T07:49:35.152Z,16.77
2022-07-29T07:50:40.577Z,14.57
2022-07-29T07:51:43.149Z,12.63
2022-07-29T07:52:58.804Z,13.57
2022-07-29T07:54:04.053Z,12.05
2022-07-29T07:55:09.715Z,12.30
2022-07-29T07:56:12.837Z,12.55
2022-07-29T07:57:18.781Z,11.13
2022-07-29T07:58:21.125Z,15.10
2022-07-29T07:59:26.077Z,9.48
2022-07-29T08:00:30.940Z,7.82
2022-07-29T08:01:47.861Z,12.20
2022-07-29T08:02:57.995Z,10.93
2022-07-29T08:04:00.179Z,12.35
2022-07-29T08:05:04.866Z,13.13
2022-07-29T08:06:10.067Z,8.52
2022-07-29T08:07:12.188Z,11.07
2022-07-29T08:08:16.876Z,10.38
2022-07-29T08:09:29.384Z,8.82
2022-07-29T08:10:47.415Z,4.55
2022-07-29T08:11:52.601Z,11.27
2022-07-29T08:12:57.516Z,14.05
2022-07-29T08:13:59.698Z,12.93
2022-07-29T08:15:04.501Z,8.23
2022-07-29T08:16:13.297Z,14.10
2022-07-29T08:17:18.535Z,11.98
2022-07-29T08:18:20.700Z,8.52
2022-07-29T08:19:25.651Z,7.28
2022-07-29T08:20:28.260Z,8.00
2022-07-29T08:21:32.990Z,7.18
2022-07-29T08:22:37.686Z,9.10
2022-07-29T08:23:46.867Z,8.30
2022-07-29T08:24:57.272Z,8.25
2022-07-29T08:25:59.435Z,7.93
2022-07-29T08:27:09.831Z,11.77
2022-07-29T08:29:28.256Z,12.68
2022-07-29T08:30:33.477Z,5.03
2022-07-29T08:31:35.680Z,7.93
2022-07-29T08:32:53.803Z,7.38
2022-07-29T08:34:00.919Z,13.77
2022-07-29T08:35:03.063Z,10.20
2022-07-29T08:36:10.036Z,10.80
2022-07-29T08:37:12.138Z,7.63
2022-07-29T08:38:16.916Z,15.27
2022-07-29T08:39:19.034Z,10.48
2022-07-29T08:40:30.729Z,11.63
2022-07-29T08:41:34.833Z,6.10
2022-07-29T08:42:39.849Z,14.68
2022-07-29T08:43:43.100Z,7.57
2022-07-29T08:44:47.952Z,7.28
2022-07-29T08:45:51.908Z,6.45
2022-07-29T08:46:56.979Z,7.68
2022-07-29T08:48:00.043Z,7.03
2022-07-29T08:49:06.176Z,6.88
2022-07-29T08:50:09.812Z,9.55
2022-07-29T08:51:17.979Z,7.38
2022-07-29T08:52:24.215Z,12.65
2022-07-29T08:53:28.357Z,9.13
2022-07-29T08:54:33.412Z,18.05
2022-07-29T08:55:40.446Z,8.88
2022-07-29T08:56:45.161Z,7.40
2022-07-29T08:57:50.845Z,7.38
2022-07-29T08:59:01.705Z,5.72
2022-07-29T09:00:11.657Z,5.13
2022-07-29T09:01:20.976Z,8.27
2022-07-29T09:02:24.220Z,31.02
2022-07-29T09:03:33.578Z,7.15
2022-07-29T09:04:39.736Z,15.07
2022-07-29T09:05:47.736Z,11.45
2022-07-29T09:06:56.281Z,11.38
2022-07-29T09:07:58.727Z,6.72
2022-07-29T09:09:05.205Z,11.57
2022-07-29T09:10:08.928Z,9.50
2022-07-29T09:11:16.860Z,6.13
2022-07-29T09:12:29.314Z,11.57
2022-07-29T09:13:34.437Z,7.18
2022-07-29T09:14:39.137Z,5.18
2022-07-29T09:15:41.459Z,6.35
2022-07-29T09:16:53.470Z,4.85
2022-07-29T09:17:57.620Z,8.15
2022-07-29T09:19:02.285Z,5.45
2022-07-29T09:20:14.986Z,7.50
2022-07-29T09:21:33.499Z,8.82
2022-07-29T09:22:41.895Z,10.95
2022-07-29T09:24:01.304Z,4.50
2022-07-29T09:25:06.082Z,12.27
2022-07-29T09:26:08.186Z,8.88
2022-07-29T09:27:23.789Z,15.13
2022-07-29T09:28:28.669Z,16.08
2022-07-29T09:29:34.486Z,9.20
2022-07-29T09:30:54.891Z,4.88
2022-07-29T09:31:57.091Z,7.45
2022-07-29T09:33:05.366Z,16.27
2022-07-29T09:34:09.039Z,11.40
2022-07-29T09:35:21.955Z,14.63
2022-07-29T09:36:24.154Z,5.85
2022-07-29T09:37:32.441Z,11.18
2022-07-29T09:38:37.752Z,5.18
2022-07-29T09:39:47.315Z,11.18
2022-07-29T09:41:05.543Z,10.05
2022-07-29T09:42:08.432Z,7.03
2022-07-29T09:43:18.767Z,12.07
2022-07-29T09:44:23.071Z,7.22
2022-07-29T09:45:33.266Z,8.57
2022-07-29T09:46:35.869Z,11.85
2022-07-29T09:47:51.131Z,8.35
2022-07-29T09:49:11.944Z,12.88
2022-07-29T09:50:17.055Z,9.32
2022-07-29T09:51:29.903Z,9.93
2022-07-29T09:52:51.474Z,4.25
2022-07-29T09:53:53.776Z,7.30
2022-07-29T09:55:08.503Z,5.22
2022-07-29T09:56:11.811Z,12.23
2022-07-29T09:57:30.906Z,14.95
2022-07-29T09:58:38.657Z,16.98
2022-07-29T09:59:50.299Z,7.97
2022-07-29T10:00:57.256Z,8.55
2022-07-29T10:01:59.476Z,6.18
2022-07-29T10:03:04.632Z,10.52
2022-07-29T10:04:07.004Z,5.80
2022-07-29T10:05:23.196Z,6.18
2022-07-29T10:06:25.398Z,5.05
2022-07-29T10:07:48.352Z,4.80
2022-07-29T10:08:57.212Z,13.60
2022-07-29T10:09:59.280Z,10.95
2022-07-29T10:11:14.138Z,9.00
2022-07-29T10:12:16.229Z,11.65
2022-07-29T10:13:21.005Z,10.38
2022-07-29T10:14:25.971Z,6.00
2022-07-29T10:15:33.050Z,8.32
2022-07-29T10:16:35.517Z,5.85
2022-07-29T10:17:41.828Z,12.55
2022-07-29T10:18:45.411Z,8.40
2022-07-29T10:19:50.847Z,9.45
2022-07-29T10:20:55.761Z,7.88
2022-07-29T10:21:59.459Z,8.65
2022-07-29T10:23:04.178Z,11.70
2022-07-29T10:24:07.760Z,5.25
2022-07-29T10:25:21.132Z,4.38
2022-07-29T10:26:23.330Z,7.20
2022-07-29T10:27:28.055Z,8.63
2022-07-29T10:28:38.959Z,9.52
2022-07-29T10:29:43.677Z,11.45
2022-07-29T10:30:49.784Z,18.67
2022-07-29T10:32:03.504Z,8.57
2022-07-29T10:33:41.923Z,24.15
2022-07-29T10:35:10.045Z,11.50
2022-07-29T10:36:30.483Z,11.18
2022-07-29T10:37:46.711Z,13.45
2022-07-29T10:39:04.064Z,11.43
2022-07-29T10:40:31.620Z,9.93
2022-07-29T10:41:59.416Z,10.40
2022-07-29T10:43:09.325Z,9.90
2022-07-29T10:44:23.295Z,13.40
2022-07-29T10:45:30.519Z,9.77
2022-07-29T10:46:40.124Z,10.43
2022-07-29T10:47:43.522Z,12.88
2022-07-29T10:49:10.054Z,16.60
2022-07-29T10:50:17.178Z,7.82
2022-07-29T10:51:19.782Z,9.32
2022-07-29T10:52:30.265Z,12.35
2022-07-29T10:53:51.481Z,12.90
2022-07-29T10:54:54.714Z,11.35
2022-07-29T10:55:59.955Z,6.57
2022-07-29T10:57:12.971Z,9.40
2022-07-29T10:58:19.493Z,16.75
2022-07-29T10:59:25.689Z,18.05
2022-07-29T11:00:35.257Z,18.63
2022-07-29T11:01:39.073Z,7.60
2022-07-29T11:02:50.034Z,10.63
2022-07-29T11:03:57.164Z,9.27
2022-07-29T11:05:04.411Z,11.05
2022-07-29T11:06:09.382Z,12.38
2022-07-29T11:07:13.300Z,10.73
2022-07-29T11:08:29.946Z,11.57
2022-07-29T11:09:37.750Z,6.38
2022-07-29T11:10:44.318Z,5.30
2022-07-29T11:11:58.188Z,6.55
2022-07-29T11:13:00.615Z,18.00
2022-07-29T11:14:05.505Z,12.43
2022-07-29T11:15:18.209Z,15.50
2022-07-29T11:16:26.817Z,13.00
2022-07-29T11:17:37.601Z,16.15
2022-07-29T11:19:30.028Z,8.55
2022-07-29T11:20:37.956Z,16.85
2022-07-29T11:21:54.322Z,11.00
2022-07-29T11:23:00.107Z,11.45
2022-07-29T11:24:13.191Z,8.07
2022-07-29T11:25:43.046Z,9.38
2022-07-29T11:26:49.215Z,13.27
2022-07-29T11:27:56.657Z,12.32
2022-07-29T11:29:03.867Z,10.77
2022-07-29T11:30:13.036Z,6.10
2022-07-29T11:31:18.122Z,10.55
2022-07-29T11:32:29.287Z,9.57
2022-07-29T11:33:54.815Z,14.13
2022-07-29T11:35:18.408Z,10.10
2022-07-29T11:36:28.299Z,12.20
2022-07-29T11:37:33.236Z,10.07
2022-07-29T11:38:47.382Z,6.82
2022-07-29T11:40:27.975Z,11.68
2022-07-29T11:41:32.622Z,13.57
2022-07-29T11:42:48.521Z,13.30
2022-07-29T11:43:58.488Z,13.65
2022-07-29T11:45:09.013Z,11.43
2022-07-29T11:46:50.873Z,10.30
2022-07-29T11:48:03.663Z,14.75
2022-07-29T11:49:32.207Z,7.75
2022-07-29T11:50:37.081Z,6.15
2022-07-29T11:51:48.547Z,6.10
2022-07-29T11:55:09.878Z,9.98
2022-07-29T11:56:18.372Z,15.63
2022-07-29T11:57:21.910Z,10.60
2022-07-29T11:58:27.280Z,12.70
2022-07-29T11:59:33.129Z,17.48
2022-07-29T12:00:41.876Z,10.23
2022-07-29T12:02:18.460Z,9.68
2022-07-29T12:03:33.461Z,10.15
2022-07-29T12:04:49.779Z,13.45
2022-07-29T12:05:54.797Z,7.93
2022-07-29T12:07:00.627Z,7.15
2022-07-29T12:08:12.598Z,12.13
2022-07-29T12:09:19.746Z,13.80
2022-07-29T12:10:30.025Z,12.68
2022-07-29T12:11:35.634Z,12.75
2022-07-29T12:12:39.638Z,9.52
2022-07-29T12:13:44.444Z,7.13
2022-07-29T12:14:47.718Z,15.10
2022-07-29T12:15:59.975Z,10.30
2022-07-29T12:17:06.429Z,14.63
2022-07-29T12:18:15.522Z,9.70
2022-07-29T12:19:23.128Z,9.95
2022-07-29T12:20:29.531Z,10.65
2022-07-29T12:21:45.724Z,18.42
2022-07-29T12:22:57.934Z,15.23
2022-07-29T12:24:08.656Z,10.88
2022-07-29T12:25:32.776Z,24.30
2022-07-29T12:26:38.296Z,14.80
2022-07-29T12:27:44.368Z,9.50
2022-07-29T12:28:49.808Z,15.77
2022-07-29T12:29:58.382Z,11.75
2022-07-29T12:31:04.796Z,13.00
2022-07-29T12:32:14.466Z,13.13
2022-07-29T12:33:26.332Z,12.40
2022-07-29T12:34:31.982Z,16.65
2022-07-29T12:35:36.901Z,16.77
2022-07-29T12:36:41.956Z,22.30
2022-07-29T12:37:45.999Z,16.20
2022-07-29T12:38:51.118Z,16.23
2022-07-29T12:39:56.178Z,18.50
2022-07-29T12:41:01.435Z,13.30
2022-07-29T12:42:14.911Z,10.90
2022-07-29T12:43:23.152Z,13.57
2022-07-29T12:44:25.653Z,16.65
2022-07-29T12:45:32.932Z,14.13
2022-07-29T12:46:35.267Z,14.43
2022-07-29T12:47:55.761Z,10.82
2022-07-29T12:48:58.440Z,10.60
2022-07-29T12:50:22.114Z,17.92
2022-07-29T12:51:37.589Z,15.60
2022-07-29T12:52:39.842Z,10.82
2022-07-29T12:53:44.646Z,12.07
2022-07-29T12:54:48.531Z,17.42
2022-07-29T12:55:55.858Z,14.35
2022-07-29T12:57:00.787Z,16.58
2022-07-29T12:58:05.469Z,12.23
2022-07-29T12:59:15.916Z,11.73
2022-07-29T13:00:25.509Z,22.35
2022-07-29T13:01:40.565Z,13.82
2022-07-29T13:02:44.808Z,15.52
2022-07-29T13:03:56.849Z,13.25
2022-07-29T13:05:01.279Z,21.95
2022-07-29T13:06:09.330Z,13.02
2022-07-29T13:07:15.590Z,19.58
2022-07-29T13:08:20.082Z,18.23
2022-07-29T13:09:26.722Z,18.80
2022-07-29T13:10:37.669Z,15.15
2022-07-29T13:11:48.814Z,21.23
2022-07-29T13:13:05.087Z,19.60
